Time;durP1;ratioP1;P1;durP2;ratioP2;P2;SDS_P1;SDS_P2;PMS_P1;PMS_P2;Temp;Humidity;BMP_temperature;BMP_pressure;BME280_temperature;BME280_humidity;BME280_pressure;Samples;Min_cycle;Max_cycle;Signal;HPM_P1;HPM_P2
2022/11/11 00:01:08;;;;;;;22.30;15.40;;;;;;;11.77;56.50;101685.24;105962;1300;21964;-68
2022/11/11 00:03:34;;;;;;;24.00;17.00;;;;;;;11.84;56.46;101686.34;106111;1295;24887;-66
2022/11/11 00:06:04;;;;;;;26.10;17.50;;;;;;;11.89;56.28;101685.30;106003;1304;21981;-66
2022/11/11 00:08:30;;;;;;;25.80;15.10;;;;;;;11.93;56.11;101683.20;106015;1299;21964;-62
2022/11/11 00:11:03;;;;;;;19.80;14.40;;;;;;;11.98;56.27;101679.89;105972;1304;21966;-66
2022/11/11 00:13:31;;;;;;;22.30;13.90;;;;;;;12.02;56.22;101678.16;106089;1304;21965;-66
2022/11/11 00:16:03;;;;;;;22.80;14.40;;;;;;;12.07;56.13;101676.23;106400;1304;21966;-66
2022/11/11 00:26:37;;;;;;;21.00;14.60;;;;;;;12.19;56.08;101671.15;106098;1301;21960;-66
2022/11/11 00:29:02;;;;;;;20.20;14.40;;;;;;;12.22;56.04;101672.56;106049;1304;21982;-66
2022/11/11 00:31:28;;;;;;;18.60;13.50;;;;;;;12.25;56.08;101670.45;105964;1304;22005;-62
2022/11/11 00:33:55;;;;;;;25.80;15.90;;;;;;;12.28;56.10;101671.17;106080;1303;21962;-66
2022/11/11 00:36:21;;;;;;;24.20;17.10;;;;;;;12.31;56.23;101667.29;106070;1299;21965;-63
2022/11/11 00:38:48;;;;;;;22.90;14.90;;;;;;;12.31;56.09;101670.29;105929;1304;21956;-67
2022/11/11 00:41:18;;;;;;;23.00;15.40;;;;;;;12.32;56.05;101668.89;106039;1304;21967;-62
2022/11/11 00:43:45;;;;;;;20.40;13.80;;;;;;;12.33;56.01;101671.52;106015;1299;21976;-66
2022/11/11 00:51:41;;;;;;;24.80;16.80;;;;;;;12.35;56.08;101672.41;105952;1304;23628;-62
2022/11/11 00:54:07;;;;;;;25.20;18.00;;;;;;;12.33;55.83;101667.84;105280;1294;1002621;-66
2022/11/11 00:56:37;;;;;;;22.00;15.70;;;;;;;12.32;55.82;101665.02;106139;1304;21970;-63
2022/11/11 00:59:04;;;;;;;21.00;15.00;;;;;;;12.31;55.73;101660.60;105990;1304;21980;-66
2022/11/11 01:01:32;;;;;;;21.90;15.10;;;;;;;12.30;55.68;101657.27;106078;1304;21969;-67
2022/11/11 01:03:58;;;;;;;24.00;15.40;;;;;;;12.30;55.71;101655.34;106002;1304;21966;-63
2022/11/11 01:06:25;;;;;;;21.30;14.80;;;;;;;12.30;55.76;101653.91;106025;1287;21972;-66
2022/11/11 01:08:52;;;;;;;26.20;16.70;;;;;;;12.30;55.90;101651.11;105948;1300;22237;-63
2022/11/11 01:11:24;;;;;;;24.00;16.90;;;;;;;12.29;55.99;101647.95;105929;1304;21975;-66
2022/11/11 01:13:50;;;;;;;20.40;14.90;;;;;;;12.28;55.95;101644.60;105968;1299;21969;-64
2022/11/11 01:16:25;;;;;;;19.00;13.80;;;;;;;12.27;56.07;101644.23;105942;1299;22031;-63
2022/11/11 01:18:52;;;;;;;23.40;15.00;;;;;;;12.25;56.09;101640.70;105988;1304;21970;-63
2022/11/11 01:21:20;;;;;;;19.10;14.30;;;;;;;12.23;56.31;101635.95;105981;1299;21970;-67
2022/11/11 01:23:48;;;;;;;19.50;14.20;;;;;;;12.20;56.30;101634.73;106143;1299;21970;-62
2022/11/11 01:26:14;;;;;;;21.50;15.70;;;;;;;12.19;56.35;101630.51;105975;1305;21966;-63
2022/11/11 01:28:41;;;;;;;21.00;14.10;;;;;;;12.18;56.17;101631.55;106067;1299;22006;-63
2022/11/11 01:31:10;;;;;;;20.30;14.00;;;;;;;12.18;56.16;101634.73;106159;1298;21963;-67
2022/11/11 01:33:36;;;;;;;18.90;13.60;;;;;;;12.18;56.32;101634.20;106159;1304;22028;-62
2022/11/11 01:36:07;;;;;;;22.30;14.80;;;;;;;12.19;56.47;101631.89;105952;1302;21967;-63
2022/11/11 01:38:37;;;;;;;21.20;14.20;;;;;;;12.22;56.32;101632.95;106140;1299;23086;-63
2022/11/11 01:41:31;;;;;;;19.90;14.40;;;;;;;12.24;56.44;101633.14;106115;1299;22048;-62
2022/11/11 01:43:50;;;;;;;17.20;12.60;;;;;;;12.24;56.47;101635.09;106068;1304;21964;-63
2022/11/11 01:46:47;;;;;;;19.20;12.90;;;;;;;12.25;56.41;101637.37;106010;1304;21964;-66
2022/11/11 01:49:45;;;;;;;17.00;11.90;;;;;;;12.23;56.30;101636.30;105971;1304;21960;-62
2022/11/11 01:52:30;;;;;;;19.00;12.50;;;;;;;12.21;56.46;101634.55;106043;1299;21959;-64
2022/11/11 01:55:07;;;;;;;20.50;13.80;;;;;;;12.22;56.42;101632.44;105970;1304;21961;-66
2022/11/11 01:57:36;;;;;;;17.30;12.90;;;;;;;12.24;56.44;101633.85;106023;1302;21954;-66
2022/11/11 02:00:07;;;;;;;16.80;12.40;;;;;;;12.23;56.29;101636.84;106165;1295;21972;-66
2022/11/11 02:02:37;;;;;;;16.30;10.80;;;;;;;12.21;56.16;101646.52;106114;1299;21959;-62
2022/11/11 02:07:48;;;;;;;17.20;11.00;;;;;;;12.09;56.15;101644.39;106154;1303;21959;-64
2022/11/11 02:10:13;;;;;;;15.80;11.70;;;;;;;12.05;56.10;101644.20;105956;1302;21954;-62
2022/11/11 02:15:23;;;;;;;16.30;11.20;;;;;;;12.00;56.33;101646.82;106063;1304;21961;-66
2022/11/11 02:17:49;;;;;;;15.90;11.10;;;;;;;11.99;56.39;101647.33;106067;1304;21957;-63
2022/11/11 02:20:22;;;;;;;15.10;10.70;;;;;;;11.98;56.48;101647.67;105935;1296;21965;-62
2022/11/11 02:22:56;;;;;;;14.60;10.00;;;;;;;11.97;56.52;101651.38;107942;1306;21795;-66
2022/11/11 02:25:23;;;;;;;16.60;11.50;;;;;;;11.94;56.46;101652.41;107952;1304;21765;-64
2022/11/11 02:27:49;;;;;;;18.20;11.80;;;;;;;11.91;56.45;101649.60;107920;1304;21937;-67
2022/11/11 02:30:16;;;;;;;13.80;10.30;;;;;;;11.90;56.73;101652.59;107944;1304;22381;-64
2022/11/11 02:32:45;;;;;;;17.80;10.90;;;;;;;11.91;56.54;101652.42;106910;1304;23632;-66
2022/11/11 02:35:21;;;;;;;14.90;10.00;;;;;;;11.88;56.58;101655.39;106883;1304;21967;-66
2022/11/11 02:37:51;;;;;;;13.90;9.70;;;;;;;11.85;56.52;101657.33;106140;1294;23796;-63
2022/11/11 02:40:30;;;;;;;16.50;11.20;;;;;;;11.84;56.63;101661.02;106037;1304;21971;-65
2022/11/11 02:42:56;;;;;;;18.60;12.90;;;;;;;11.84;56.67;101655.56;106019;1295;21945;-63
2022/11/11 02:45:22;;;;;;;15.90;11.60;;;;;;;11.85;56.57;101651.52;106011;1303;21967;-66
2022/11/11 02:47:48;;;;;;;15.60;10.50;;;;;;;11.87;56.78;101651.17;106014;1303;22004;-66
2022/11/11 02:50:14;;;;;;;16.70;11.80;;;;;;;11.92;56.97;101652.95;106113;1304;22005;-66
2022/11/11 02:52:40;;;;;;;15.40;11.50;;;;;;;11.94;57.07;101650.30;106061;1299;21970;-62
2022/11/11 02:55:06;;;;;;;18.30;11.50;;;;;;;11.97;56.95;101652.08;105948;1292;21966;-67
2022/11/11 02:57:33;;;;;;;14.50;11.20;;;;;;;11.97;56.87;101652.06;106106;1304;22010;-63
2022/11/11 02:59:59;;;;;;;15.50;11.70;;;;;;;11.97;56.72;101652.77;105955;1294;21966;-63
2022/11/11 03:02:26;;;;;;;14.80;10.60;;;;;;;11.95;56.70;101656.10;106033;1299;21965;-66
2022/11/11 03:04:53;;;;;;;13.90;9.50;;;;;;;11.95;56.74;101652.61;105977;1291;21976;-66
2022/11/11 03:07:22;;;;;;;13.10;10.00;;;;;;;11.95;56.82;101650.13;106127;1304;21959;-66
2022/11/11 03:09:47;;;;;;;14.30;10.10;;;;;;;11.97;56.85;101649.61;106037;1299;21964;-63
2022/11/11 03:12:14;;;;;;;14.60;10.60;;;;;;;12.00;56.75;101648.94;105998;1304;21969;-63
2022/11/11 03:14:41;;;;;;;18.20;12.20;;;;;;;12.01;56.96;101647.89;105978;1304;23860;-63
2022/11/11 03:17:39;;;;;;;12.90;10.20;;;;;;;12.04;56.76;101649.13;106083;1302;21968;-66
2022/11/11 03:22:44;;;;;;;13.90;9.60;;;;;;;12.08;56.73;101644.04;105972;1303;21982;-63
2022/11/11 03:27:54;;;;;;;16.10;12.00;;;;;;;12.11;56.72;101649.67;105978;1304;21980;-63
2022/11/11 03:30:20;;;;;;;16.00;12.20;;;;;;;12.10;56.73;101650.20;105933;1305;22010;-63
2022/11/11 03:32:46;;;;;;;16.40;10.90;;;;;;;12.10;56.88;101651.79;105918;1301;21961;-63
2022/11/11 03:35:12;;;;;;;15.50;11.70;;;;;;;12.11;56.93;101654.42;105929;1304;21972;-66
2022/11/11 03:40:22;;;;;;;16.20;12.00;;;;;;;12.17;56.86;101657.95;105902;1304;21959;-66
2022/11/11 03:42:48;;;;;;;17.90;13.40;;;;;;;12.18;57.06;101658.83;106120;1299;21971;-63
2022/11/11 03:45:14;;;;;;;22.00;15.60;;;;;;;12.22;57.05;101663.05;105958;1304;21966;-62
2022/11/11 03:47:42;;;;;;;19.50;14.90;;;;;;;12.25;57.09;101665.17;105980;1304;21978;-63
2022/11/11 03:50:08;;;;;;;21.00;14.60;;;;;;;12.24;56.94;101664.30;105934;1303;21964;-66
2022/11/11 03:52:34;;;;;;;20.10;14.20;;;;;;;12.25;56.84;101667.27;106000;1305;21973;-66
2022/11/11 03:55:00;;;;;;;22.60;16.00;;;;;;;12.27;56.92;101671.34;105930;1304;21960;-66
2022/11/11 03:57:29;;;;;;;21.00;16.20;;;;;;;12.30;57.18;101675.92;105959;1304;21959;-66
2022/11/11 03:59:54;;;;;;;25.10;16.30;;;;;;;12.31;56.97;101677.86;106006;1299;21980;-63
2022/11/11 04:10:34;;;;;;;21.70;14.80;;;;;;;12.28;56.99;101673.63;105928;1299;21960;-65
2022/11/11 04:25:47;;;;;;;19.80;14.30;;;;;;;12.32;57.05;101680.68;106041;1295;21962;-67
2022/11/11 04:26:49;;;;;;;23.00;15.30;;;;;;;12.32;57.20;101678.39;106106;1304;22009;-66
2022/11/11 04:29:30;;;;;;;21.40;15.00;;;;;;;12.33;57.13;101679.09;105981;1304;21954;-65
2022/11/11 04:35:05;;;;;;;22.10;13.80;;;;;;;12.33;57.37;101685.96;105931;1299;21977;-67
2022/11/11 04:37:33;;;;;;;20.70;15.20;;;;;;;12.33;57.35;101685.43;106048;1299;23032;-67
2022/11/11 04:42:43;;;;;;;20.30;13.90;;;;;;;12.41;57.38;101681.91;105935;1293;21983;-64
2022/11/11 04:45:29;;;;;;;19.50;15.10;;;;;;;12.46;57.50;101678.75;105949;1304;21957;-64
2022/11/11 04:48:03;;;;;;;22.40;15.20;;;;;;;12.49;57.60;101678.06;105942;1299;21934;-67
2022/11/11 04:50:31;;;;;;;21.30;15.30;;;;;;;12.50;57.62;101675.24;105936;1304;21978;-64
2022/11/11 04:52:57;;;;;;;22.90;15.60;;;;;;;12.50;57.57;101675.06;105971;1304;21974;-67
2022/11/11 04:58:07;;;;;;;18.70;14.40;;;;;;;12.53;57.61;101684.58;105944;1304;21981;-65
2022/11/11 05:00:33;;;;;;;21.20;13.30;;;;;;;12.53;57.39;101682.10;105951;1305;21971;-64
2022/11/11 05:03:14;;;;;;;34.00;15.20;;;;;;;12.55;57.52;101684.74;106152;1304;22427;-64
2022/11/11 05:08:55;;;;;;;21.70;13.60;;;;;;;12.60;57.51;101689.49;106034;1299;21959;-67
2022/11/11 05:11:28;;;;;;;21.80;14.30;;;;;;;12.57;57.31;101691.10;106079;1304;21960;-67
2022/11/11 05:22:50;;;;;;;23.90;15.00;;;;;;;12.54;57.45;101712.04;106102;1304;21971;-63
2022/11/11 05:25:25;;;;;;;28.00;15.00;;;;;;;12.54;57.42;101713.63;106095;1299;21962;-64
2022/11/11 05:27:56;;;;;;;20.40;13.70;;;;;;;12.54;57.57;101717.32;106070;1301;21998;-68
2022/11/11 05:30:22;;;;;;;19.70;13.90;;;;;;;12.55;57.73;101719.27;106084;1304;21996;-67
2022/11/11 05:32:48;;;;;;;19.80;13.20;;;;;;;12.54;57.75;101721.02;106147;1299;22004;-64
2022/11/11 05:35:14;;;;;;;18.30;12.80;;;;;;;12.54;57.68;101721.90;106120;1299;22004;-64
2022/11/11 05:37:41;;;;;;;18.90;13.50;;;;;;;12.56;57.82;101724.20;106167;1299;21959;-64
2022/11/11 05:40:08;;;;;;;18.20;12.30;;;;;;;12.58;57.71;101726.48;106153;1304;21969;-67
2022/11/11 05:42:34;;;;;;;20.90;13.60;;;;;;;12.59;57.89;101727.17;106010;1301;23711;-68
2022/11/11 05:45:00;;;;;;;22.00;14.60;;;;;;;12.60;58.08;101726.81;105970;1299;22192;-64
2022/11/11 05:47:25;;;;;;;19.10;13.00;;;;;;;12.58;57.98;101727.71;106125;1303;21970;-64
2022/11/11 05:49:51;;;;;;;21.00;14.50;;;;;;;12.58;58.07;101728.42;106103;1303;21929;-64
2022/11/11 05:52:16;;;;;;;17.60;12.70;;;;;;;12.58;58.12;101730.36;106002;1303;21961;-64
2022/11/11 05:54:43;;;;;;;18.80;13.40;;;;;;;12.57;58.36;101736.52;105950;1299;21976;-64
2022/11/11 05:57:09;;;;;;;18.80;14.00;;;;;;;12.58;58.42;101735.11;106097;1304;21977;-64
2022/11/11 05:59:35;;;;;;;17.90;12.10;;;;;;;12.60;58.35;101737.04;105949;1304;23645;-65
2022/11/11 06:02:01;;;;;;;16.50;11.10;;;;;;;12.63;58.44;101740.20;105930;1304;21959;-64
2022/11/11 06:04:27;;;;;;;16.00;10.90;;;;;;;12.67;58.58;101739.15;105926;1295;21969;-67
2022/11/11 06:06:53;;;;;;;16.40;12.20;;;;;;;12.73;58.68;101739.16;105927;1304;21962;-67
2022/11/11 06:09:19;;;;;;;14.60;11.10;;;;;;;12.79;58.65;101745.34;106009;1304;21959;-64
2022/11/11 06:11:45;;;;;;;13.50;10.00;;;;;;;12.83;58.63;101748.67;106035;1304;21936;-68
2022/11/11 06:14:11;;;;;;;18.30;11.10;;;;;;;12.88;58.80;101752.02;105945;1299;21979;-66
2022/11/11 06:16:37;;;;;;;18.00;12.60;;;;;;;12.92;59.02;101752.55;106004;1292;22011;-66
2022/11/11 06:19:03;;;;;;;18.90;13.00;;;;;;;12.98;59.38;101753.44;105919;1301;21967;-65
2022/11/11 06:21:31;;;;;;;18.80;12.50;;;;;;;13.03;59.34;101751.31;106046;1302;21965;-65
2022/11/11 06:23:57;;;;;;;18.10;13.10;;;;;;;13.08;59.11;101751.48;105820;1297;22146;-66
2022/11/11 06:26:23;;;;;;;17.90;12.00;;;;;;;13.15;59.12;101760.30;106015;1304;21966;-65
2022/11/11 06:28:54;;;;;;;21.70;11.00;;;;;;;13.22;59.31;101762.91;106026;1304;21951;-65
2022/11/11 06:31:24;;;;;;;19.90;13.70;;;;;;;13.28;59.11;101764.32;105932;1304;22430;-65
2022/11/11 06:33:52;;;;;;;;;;;;;;;13.32;59.50;101764.67;105775;1295;350546;-65
2022/11/11 06:36:19;;;;;;;22.00;12.60;;;;;;;13.36;58.99;101764.33;105942;1302;22847;-65
2022/11/11 06:38:45;;;;;;;18.70;12.60;;;;;;;13.39;59.07;101763.80;106232;1295;21972;-65
2022/11/11 06:41:11;;;;;;;17.50;11.70;;;;;;;13.42;59.03;101767.17;106022;1304;22052;-64
2022/11/11 06:43:39;;;;;;;16.40;12.00;;;;;;;13.44;58.99;101771.93;106238;1300;21958;-65
2022/11/11 06:46:05;;;;;;;18.60;11.50;;;;;;;13.46;59.09;101772.43;106106;1303;22021;-65
2022/11/11 06:48:31;;;;;;;16.40;11.10;;;;;;;13.48;58.89;101775.43;106156;1303;21960;-65
2022/11/11 06:51:03;;;;;;;20.30;12.90;;;;;;;13.49;58.85;101779.65;106105;1299;21959;-63
2022/11/11 06:53:30;;;;;;;20.50;12.50;;;;;;;13.51;58.90;101781.77;106117;1304;21946;-65
2022/11/11 06:55:56;;;;;;;18.20;11.80;;;;;;;13.54;58.55;101783.52;106031;1304;21969;-65
2022/11/11 06:58:22;;;;;;;17.50;12.20;;;;;;;13.58;58.51;101787.42;106175;1304;22051;-65
2022/11/11 07:00:48;;;;;;;16.20;11.30;;;;;;;13.56;58.57;101788.47;106844;1299;21825;-65
2022/11/11 07:03:15;;;;;;;16.10;11.80;;;;;;;13.58;58.52;101789.35;107963;1304;21890;-65
2022/11/11 07:05:42;;;;;;;17.00;12.50;;;;;;;13.58;58.56;101792.70;106108;1301;21970;-66
2022/11/11 07:08:09;;;;;;;16.20;11.30;;;;;;;13.57;58.56;101793.23;106187;1299;21992;-64
2022/11/11 07:10:37;;;;;;;15.60;10.50;;;;;;;13.55;58.48;101796.58;106064;1298;21964;-64
2022/11/11 07:13:05;;;;;;;19.90;11.20;;;;;;;13.57;58.48;101800.46;105996;1303;21966;-64
2022/11/11 07:15:31;;;;;;;17.80;11.90;;;;;;;13.60;58.32;101802.22;106319;1304;21959;-64
2022/11/11 07:18:17;;;;;;;18.10;12.90;;;;;;;13.59;58.28;101803.45;105839;1304;22757;-67
2022/11/11 07:20:45;;;;;;;20.70;12.70;;;;;;;13.58;58.36;101804.86;106127;1304;21966;-68
2022/11/11 07:23:10;;;;;;;18.20;12.10;;;;;;;13.57;58.31;101810.87;105977;1304;21971;-68
2022/11/11 07:25:39;;;;;;;18.00;11.50;;;;;;;13.56;58.43;101810.69;106147;1304;21965;-70
2022/11/11 07:28:05;;;;;;;22.00;13.70;;;;;;;13.55;58.29;101810.86;106173;1294;23647;-69
2022/11/11 07:30:31;;;;;;;17.60;12.30;;;;;;;13.55;58.38;101810.87;105945;1304;22012;-63
2022/11/11 07:32:57;;;;;;;17.40;13.00;;;;;;;13.55;58.28;101810.52;105977;1299;22416;-69
2022/11/11 07:35:23;;;;;;;13.10;10.90;;;;;;;13.56;58.52;101807.52;105942;1304;21966;-63
2022/11/11 07:37:49;;;;;;;19.70;12.60;;;;;;;13.58;58.49;101806.61;106022;1304;21961;-71
2022/11/11 07:40:16;;;;;;;18.40;12.40;;;;;;;13.64;58.66;101811.39;106142;1303;23831;-72
2022/11/11 07:42:42;;;;;;;14.80;10.10;;;;;;;13.70;58.54;101812.95;106061;1299;21962;-63
2022/11/11 07:45:09;;;;;;;15.10;10.50;;;;;;;13.74;58.45;101816.82;105917;1305;21957;-70
2022/11/11 07:47:35;;;;;;;14.90;10.80;;;;;;;13.77;58.46;101817.34;105999;1304;21987;-62
2022/11/11 07:50:05;;;;;;;26.20;14.60;;;;;;;13.79;58.52;101815.40;106024;1301;21975;-69
2022/11/11 07:52:31;;;;;;;20.10;12.80;;;;;;;13.80;58.39;101817.35;106011;1296;21960;-69
2022/11/11 07:54:58;;;;;;;23.30;13.90;;;;;;;13.81;58.37;101821.23;106067;1304;21968;-68
2022/11/11 07:57:24;;;;;;;23.70;16.10;;;;;;;13.83;58.42;101819.98;106046;1304;21976;-64
2022/11/11 07:59:50;;;;;;;28.40;15.10;;;;;;;13.85;58.51;101817.52;106049;1304;21965;-68
2022/11/11 08:02:18;;;;;;;89.60;51.30;;;;;;;13.89;58.57;101818.38;105883;1306;21963;-68
2022/11/11 08:04:44;;;;;;;30.80;20.30;;;;;;;14.00;59.13;101817.63;105903;1304;21959;-61
2022/11/11 08:07:11;;;;;;;42.90;27.20;;;;;;;14.10;58.93;101820.25;105823;1306;21974;-69
2022/11/11 08:09:37;;;;;;;49.90;39.40;;;;;;;14.14;58.77;101828.16;107945;1299;21897;-63
2022/11/11 08:14:47;;;;;;;26.30;18.20;;;;;;;14.26;58.75;101830.41;107151;1304;23194;-70
2022/11/11 08:17:13;;;;;;;64.00;33.40;;;;;;;14.31;58.79;101835.52;106042;1304;22434;-69
2022/11/11 08:19:39;;;;;;;32.40;20.00;;;;;;;14.35;58.83;101838.84;105989;1299;21964;-69
2022/11/11 08:22:06;;;;;;;31.00;24.40;;;;;;;14.38;58.68;101841.30;105979;1303;21960;-69
2022/11/11 08:24:32;;;;;;;30.30;19.20;;;;;;;14.37;58.64;101842.02;106024;1299;22946;-70
2022/11/11 08:26:59;;;;;;;28.00;20.50;;;;;;;14.34;58.84;101843.80;106077;1304;23618;-69
2022/11/11 08:29:24;;;;;;;23.50;18.60;;;;;;;14.31;59.10;101843.64;105913;1299;21963;-68
2022/11/11 08:31:53;;;;;;;25.90;19.10;;;;;;;14.27;59.11;101845.42;105929;1299;21967;-61
2022/11/11 08:34:19;;;;;;;26.70;19.40;;;;;;;14.24;59.01;101845.77;105918;1304;21961;-67
2022/11/11 08:36:45;;;;;;;27.10;19.40;;;;;;;14.24;59.20;101848.08;105915;1306;23042;-69
2022/11/11 08:39:11;;;;;;;28.10;16.80;;;;;;;14.27;59.19;101848.95;105962;1306;21970;-68
2022/11/11 08:41:38;;;;;;;26.30;16.90;;;;;;;14.30;59.41;101847.88;105962;1302;21980;-62
2022/11/11 08:44:05;;;;;;;22.20;17.30;;;;;;;14.30;59.21;101848.06;105946;1304;21967;-61
2022/11/11 08:46:30;;;;;;;20.80;15.60;;;;;;;14.30;59.28;101849.83;106018;1306;21978;-61
2022/11/11 08:48:56;;;;;;;22.70;16.40;;;;;;;14.31;59.25;101849.11;105956;1305;21956;-69
2022/11/11 08:51:22;;;;;;;20.20;15.10;;;;;;;14.31;59.19;101849.81;105884;1304;21962;-69
2022/11/11 08:53:48;;;;;;;22.10;14.80;;;;;;;14.30;59.22;101849.64;105873;1306;21981;-68
2022/11/11 08:56:13;;;;;;;20.80;15.20;;;;;;;14.28;59.55;101850.35;105907;1306;21956;-69
2022/11/11 08:58:40;;;;;;;21.50;15.00;;;;;;;14.26;59.52;101849.66;105988;1306;21977;-61
2022/11/11 09:01:10;;;;;;;19.80;15.60;;;;;;;14.27;59.43;101847.71;106045;1304;21971;-61
2022/11/11 09:03:35;;;;;;;21.10;14.50;;;;;;;14.28;59.51;101845.05;105888;1305;22161;-61
2022/11/11 09:06:02;;;;;;;18.00;13.60;;;;;;;14.29;59.47;101847.17;105847;1306;21962;-61
2022/11/11 09:08:28;;;;;;;23.40;16.30;;;;;;;14.29;59.50;101849.11;105868;1301;22006;-61
2022/11/11 09:10:57;;;;;;;22.80;15.70;;;;;;;14.30;59.67;101849.29;105873;1304;21969;-61
2022/11/11 09:13:22;;;;;;;19.60;14.40;;;;;;;14.34;59.58;101851.39;105952;1306;22007;-61
2022/11/11 09:15:48;;;;;;;19.90;14.80;;;;;;;14.39;59.61;101850.83;105624;1306;21972;-63
2022/11/11 09:18:15;;;;;;;21.30;16.00;;;;;;;14.41;59.42;101855.23;105941;1306;21957;-61
2022/11/11 09:20:42;;;;;;;22.10;16.50;;;;;;;14.43;59.43;101849.94;106067;1303;21968;-69
2022/11/11 09:23:11;;;;;;;21.80;13.60;;;;;;;14.45;59.32;101844.10;105898;1306;21933;-62
2022/11/11 09:25:38;;;;;;;19.00;14.40;;;;;;;14.47;59.31;101844.45;106027;1302;21962;-66
2022/11/11 09:28:04;;;;;;;20.70;14.30;;;;;;;14.50;59.19;101846.02;105924;1306;21977;-70
2022/11/11 09:30:30;;;;;;;19.90;15.40;;;;;;;14.52;59.16;101844.24;105897;1306;21971;-69
2022/11/11 09:33:03;;;;;;;17.20;12.70;;;;;;;14.54;59.26;101847.41;105910;1306;21981;-60
2022/11/11 09:35:29;;;;;;;24.70;13.10;;;;;;;14.58;59.27;101848.42;105939;1305;21965;-61
2022/11/11 09:38:00;;;;;;;19.00;13.80;;;;;;;14.61;59.41;101847.00;105868;1304;21983;-68
2022/11/11 09:40:31;;;;;;;16.40;11.90;;;;;;;14.61;59.24;101845.77;105932;1304;21997;-68
2022/11/11 09:43:23;;;;;;;18.60;12.80;;;;;;;14.62;59.27;101846.28;105917;1299;21957;-61
2022/11/11 09:45:54;;;;;;;19.70;14.00;;;;;;;14.63;59.27;101847.52;105832;1306;21977;-68
2022/11/11 09:48:38;;;;;;;17.90;13.60;;;;;;;14.62;59.17;101845.95;106119;1299;21968;-61
2022/11/11 09:51:04;;;;;;;17.70;12.40;;;;;;;14.58;59.40;101847.21;106033;1305;21977;-69
2022/11/11 09:53:36;;;;;;;17.70;12.50;;;;;;;14.53;59.29;101849.17;105938;1306;21971;-70
2022/11/11 09:56:10;;;;;;;18.20;13.80;;;;;;;14.52;59.30;101849.02;106007;1299;21981;-61
2022/11/11 09:59:00;;;;;;;18.40;14.30;;;;;;;14.54;59.28;101848.82;106199;1304;23786;-65
2022/11/11 10:01:28;;;;;;;22.90;15.30;;;;;;;14.56;59.53;101845.64;106000;1305;21959;-69
2022/11/11 10:04:19;;;;;;;20.10;14.00;;;;;;;14.54;59.89;101844.05;106064;1304;23066;-62
2022/11/11 10:06:46;;;;;;;22.50;13.90;;;;;;;14.54;59.48;101843.34;106148;1304;22049;-68
2022/11/11 10:09:27;;;;;;;21.00;13.50;;;;;;;14.57;59.56;101838.55;106016;1299;21969;-69
2022/11/11 10:11:58;;;;;;;22.10;15.40;;;;;;;14.61;59.59;101838.89;106036;1299;21987;-69
2022/11/11 10:14:35;;;;;;;24.20;13.30;;;;;;;14.68;59.64;101840.27;105999;1294;21962;-61
2022/11/11 10:17:22;;;;;;;19.10;13.40;;;;;;;14.73;59.67;101843.45;106003;1304;23610;-69
2022/11/11 10:20:14;;;;;;;18.90;13.10;;;;;;;14.76;59.54;101836.72;105954;1306;21968;-61
2022/11/11 10:22:42;;;;;;;17.40;12.80;;;;;;;14.77;59.39;101837.77;106006;1305;21989;-61
2022/11/11 10:25:12;;;;;;;20.80;13.90;;;;;;;14.77;59.41;101835.12;106075;1299;21966;-68
2022/11/11 10:27:42;;;;;;;18.00;12.40;;;;;;;14.78;59.41;101832.48;106045;1304;21970;-69
2022/11/11 10:30:22;;;;;;;16.10;10.80;;;;;;;14.78;59.33;101833.70;105964;1299;21966;-61
2022/11/11 10:33:11;;;;;;;;;;;;;;;14.80;59.41;101831.02;106016;1306;21946;-61
2022/11/11 10:35:37;;;;;;;16.60;10.70;;;;;;;14.82;59.52;101831.54;105866;1306;22011;-68
2022/11/11 10:38:16;;;;;;;16.00;11.30;;;;;;;14.84;59.50;101830.28;105728;1306;21962;-61
2022/11/11 10:40:53;;;;;;;17.40;12.10;;;;;;;14.86;59.53;101830.10;105929;1306;22011;-61
2022/11/11 10:43:22;;;;;;;17.80;13.30;;;;;;;14.89;59.52;101827.43;105705;1304;21973;-61
2022/11/11 10:46:12;;;;;;;16.40;11.60;;;;;;;14.91;59.43;101826.52;105900;1295;22022;-62
2022/11/11 10:48:55;;;;;;;17.70;10.50;;;;;;;14.81;59.64;101826.96;105802;1298;21974;-68
2022/11/11 10:51:21;;;;;;;15.20;11.00;;;;;;;14.74;59.65;101825.24;105895;1299;22016;-61
2022/11/11 10:54:02;;;;;;;17.50;11.10;;;;;;;14.70;59.64;101823.14;105780;1302;21965;-68
2022/11/11 10:56:38;;;;;;;12.30;10.20;;;;;;;14.69;59.66;101824.38;105944;1299;22148;-69
2022/11/11 10:59:21;;;;;;;12.90;9.90;;;;;;;14.69;59.81;101824.73;106020;1301;21963;-68
2022/11/11 11:01:53;;;;;;;15.30;10.40;;;;;;;14.68;59.82;101822.78;105772;1298;21964;-68
2022/11/11 11:04:28;;;;;;;20.60;9.70;;;;;;;14.66;59.78;101820.83;106007;1304;23095;-68
2022/11/11 11:06:57;;;;;;;14.60;9.30;;;;;;;14.66;59.85;101816.60;105763;1306;21966;-69
2022/11/11 11:09:54;;;;;;;15.80;10.80;;;;;;;14.66;59.97;101815.71;105770;1306;21968;-61
2022/11/11 11:12:35;;;;;;;23.90;14.80;;;;;;;14.67;59.92;101813.77;105802;1302;21981;-61
2022/11/11 11:15:07;;;;;;;149.30;74.80;;;;;;;14.69;60.15;101809.36;106007;1299;21984;-68
2022/11/11 11:17:52;;;;;;;139.10;67.80;;;;;;;14.73;60.19;101803.16;105904;1306;21971;-68
2022/11/11 11:20:22;;;;;;;101.50;53.80;;;;;;;14.78;60.12;101806.12;105925;1306;21954;-68
2022/11/11 11:22:56;;;;;;;79.90;43.40;;;;;;;14.86;60.17;101803.77;105831;1299;22021;-68
2022/11/11 11:25:28;;;;;;;48.50;29.40;;;;;;;14.92;60.15;101803.02;105880;1306;21964;-61
2022/11/11 11:28:03;;;;;;;;;;;;;;;14.98;60.20;101801.22;105942;1306;21956;-69
2022/11/11 11:30:29;;;;;;;46.30;26.20;;;;;;;15.03;60.23;101806.83;105975;1299;21979;-68
2022/11/11 11:32:59;;;;;;;54.10;26.30;;;;;;;15.08;60.22;101809.09;105880;1304;21967;-69
2022/11/11 11:35:33;;;;;;;47.40;24.80;;;;;;;15.13;60.12;101809.21;105904;1304;22070;-61
2022/11/11 11:37:59;;;;;;;47.50;25.10;;;;;;;15.17;60.06;101809.54;106018;1304;22754;-67
2022/11/11 11:40:27;;;;;;;33.20;19.40;;;;;;;15.20;60.09;101810.40;105940;1299;21958;-67
2022/11/11 11:42:53;;;;;;;20.20;13.90;;;;;;;15.24;60.07;101807.54;105954;1304;21957;-61
2022/11/11 11:45:24;;;;;;;20.50;13.20;;;;;;;15.28;60.02;101802.02;105769;1304;22946;-60
2022/11/11 11:47:59;;;;;;;17.60;11.00;;;;;;;15.34;60.12;101800.91;105875;1304;22385;-66
2022/11/11 11:50:50;;;;;;;14.50;10.10;;;;;;;15.39;59.96;101804.75;106120;1299;21972;-60
2022/11/11 11:53:46;;;;;;;15.20;10.20;;;;;;;15.43;59.99;101805.42;105784;1306;23096;-61
2022/11/11 11:56:32;;;;;;;12.50;8.20;;;;;;;15.47;59.94;101804.66;105948;1299;21958;-67
2022/11/11 11:59:01;;;;;;;11.40;7.90;;;;;;;15.48;59.80;101804.65;105847;1304;22024;-60
2022/11/11 12:01:57;;;;;;;13.50;7.90;;;;;;;15.49;59.83;101807.30;106150;1298;21956;-67
2022/11/11 12:04:39;;;;;;;14.70;10.10;;;;;;;15.54;59.82;101805.83;106044;1304;21963;-67
2022/11/11 12:07:12;;;;;;;15.70;9.90;;;;;;;15.53;59.70;101804.25;106139;1301;21944;-62
2022/11/11 12:09:45;;;;;;;16.70;9.90;;;;;;;15.55;59.71;101806.00;106090;1296;22228;-67
2022/11/11 12:12:19;;;;;;;13.60;9.30;;;;;;;15.55;59.71;101810.77;106168;1304;21950;-61
2022/11/11 12:15:00;;;;;;;13.80;9.30;;;;;;;15.55;59.60;101811.84;106076;1304;23839;-67
2022/11/11 12:17:55;;;;;;;16.60;9.80;;;;;;;15.55;59.68;101814.85;105985;1304;21965;-68
2022/11/11 12:20:27;;;;;;;19.60;11.80;;;;;;;15.56;59.64;101817.13;106033;1304;21963;-68
2022/11/11 12:22:56;;;;;;;17.60;11.00;;;;;;;15.63;59.45;101817.42;106204;1304;21973;-67
2022/11/11 12:26:00;;;;;;;14.10;8.90;;;;;;;15.68;59.29;101818.43;106189;1304;21994;-62